»·PEaware :: N20957 KBLH-KGYR

N20957 :: KBLH-KGYR

FLIGHT INFORMATION

Flight Status: Arrived
Operator: Privately registered:
United States
More flights under this callsign
Pilot: Charles P. (32095)
Aircraft: CESSNA 172 SKYHAWK
(C172)
More flights by this aircraft type
Origin: KBLH Blythe
United States
Destination: KGYR Phoenix Goodyear
United States
More flights between these airports :: More routes between these airports
Route:
File this flight plan on PilotEdge
Remarks: N / A
Altitude:
(Current/Filed)
5,500ft
Speed:
(Current/Filed)
124kts
Departed: 19-May-21 11:14 AM
Arrived: 19-May-21 12:15 PM
Distance/Time
Traveled:
118nm/1:01
Distance/Time
To Go:
Arrived

Flight Plot

Page will automatically refresh every two minutes.

Flight plan parsing failed; only flown route is shown


Map Options




Map Legend


Flown Route
Filed Route
Departure Airport
Arrival Airport
Navaid (VOR, NDB)
Fix

Horizontal Profiles

Position Reports

Time Latitude Longitude Heading Altitude Ground
Speed
19-May-21 10:50 33.614281 -114.712504 66 401ft 0kts
19-May-21 10:51 33.614281 -114.712504 66 401ft 0kts
19-May-21 10:52 33.614281 -114.712504 66 401ft 0kts
19-May-21 10:53 33.614281 -114.712504 66 401ft 0kts
19-May-21 10:54 33.614281 -114.712504 66 401ft 0kts
19-May-21 10:55 33.614281 -114.712504 66 401ft 0kts
19-May-21 10:56 33.614281 -114.712504 66 401ft 0kts
19-May-21 10:57 33.614281 -114.712504 66 401ft 0kts
19-May-21 10:58 33.614281 -114.712504 66 401ft 0kts
19-May-21 10:59 33.614281 -114.712504 66 401ft 0kts
19-May-21 11:00 33.614281 -114.712504 66 401ft 0kts
19-May-21 11:01 33.614281 -114.712504 66 401ft 0kts
19-May-21 11:02 33.614281 -114.712504 66 401ft 0kts
19-May-21 11:03 33.614281 -114.712505 66 401ft 0kts
19-May-21 11:04 33.614281 -114.712505 65 401ft 0kts
19-May-21 11:05 33.614281 -114.712505 65 401ft 0kts
19-May-21 11:06 33.614281 -114.712506 65 401ft 0kts
19-May-21 11:07 33.614765 -114.712426 28 401ft 3kts
19-May-21 11:08 33.615131 -114.709554 90 400ft 14kts
19-May-21 11:09 33.615734 -114.706286 6 399ft 3kts
19-May-21 11:10 33.615772 -114.706282 3 399ft 0kts
19-May-21 11:11 33.615772 -114.706282 3 399ft 0kts
19-May-21 11:12 33.615954 -114.706305 344 399ft 8kts
19-May-21 11:13 33.616520 -114.708624 269 398ft 44kts
19-May-21 11:14 33.614854 -114.735626 232 908ft 96kts
19-May-21 11:15 33.601051 -114.721253 87 1626ft 106kts
19-May-21 11:16 33.599703 -114.685784 97 2290ft 106kts
19-May-21 11:17 33.605258 -114.650583 64 2783ft 112kts
19-May-21 11:18 33.611779 -114.614212 94 3286ft 113kts
19-May-21 11:19 33.608573 -114.575230 94 3488ft 125kts
19-May-21 11:20 33.605367 -114.532736 95 3499ft 129kts
19-May-21 11:21 33.602137 -114.489939 95 3500ft 128kts
19-May-21 11:22 33.598888 -114.447074 95 3500ft 128kts
19-May-21 11:23 33.595616 -114.404379 95 3501ft 129kts
19-May-21 11:24 33.592315 -114.361533 95 3500ft 128kts
19-May-21 11:25 33.589016 -114.318618 95 3490ft 128kts
19-May-21 11:26 33.585687 -114.275834 95 3498ft 128kts
19-May-21 11:27 33.582370 -114.233112 95 3501ft 129kts
19-May-21 11:28 33.579011 -114.190141 95 3500ft 129kts
19-May-21 11:29 33.575651 -114.147376 95 3503ft 129kts
19-May-21 11:30 33.572282 -114.104177 95 3499ft 128kts
19-May-21 11:31 33.568839 -114.061235 95 3499ft 130kts
19-May-21 11:32 33.565410 -114.017986 95 3497ft 129kts
19-May-21 11:33 33.561970 -113.974915 95 3499ft 129kts
19-May-21 11:34 33.558510 -113.931965 95 3500ft 128kts
19-May-21 11:35 33.555047 -113.889003 95 3498ft 129kts
19-May-21 11:36 33.551564 -113.845978 95 3501ft 130kts
19-May-21 11:37 33.548063 -113.803019 95 3498ft 129kts
19-May-21 11:38 33.544561 -113.760112 96 3502ft 129kts
19-May-21 11:39 33.541030 -113.717188 95 3501ft 129kts
19-May-21 11:40 33.537495 -113.674323 96 3500ft 129kts
19-May-21 11:41 33.533968 -113.631637 96 3502ft 129kts
19-May-21 11:42 33.530384 -113.588687 96 3499ft 129kts
19-May-21 11:43 33.526810 -113.545741 95 3506ft 130kts
19-May-21 11:44 33.523195 -113.502760 95 3500ft 129kts
19-May-21 11:45 33.519590 -113.459997 96 3497ft 129kts
19-May-21 11:46 33.515967 -113.416952 96 3498ft 129kts
19-May-21 11:47 33.512329 -113.374166 95 3497ft 128kts
19-May-21 11:48 33.508698 -113.331517 95 3498ft 129kts
19-May-21 11:49 33.505037 -113.288719 96 3500ft 129kts
19-May-21 11:50 33.501355 -113.245950 96 3497ft 129kts
19-May-21 11:51 33.497668 -113.203092 96 3499ft 129kts
19-May-21 11:52 33.493953 -113.160196 96 3500ft 129kts
19-May-21 11:53 33.490225 -113.117341 96 3498ft 129kts
19-May-21 11:54 33.486482 -113.074478 96 3501ft 129kts
19-May-21 11:55 33.482710 -113.031596 96 3498ft 129kts
19-May-21 11:56 33.478959 -112.988910 96 3499ft 128kts
19-May-21 11:57 33.475197 -112.946388 96 3501ft 129kts
19-May-21 11:59 33.471412 -112.903697 96 3499ft 128kts
19-May-21 12:00 33.467644 -112.861469 96 3501ft 126kts
19-May-21 12:01 33.463883 -112.819381 96 3500ft 127kts
19-May-21 12:02 33.460095 -112.777184 96 3501ft 127kts
19-May-21 12:03 33.456303 -112.735276 96 3500ft 127kts
19-May-21 12:04 33.452506 -112.693112 96 3502ft 127kts
19-May-21 12:05 33.448673 -112.651010 96 3498ft 127kts
19-May-21 12:06 33.444838 -112.608796 96 3501ft 127kts
19-May-21 12:07 33.440924 -112.566173 96 3337ft 136kts
19-May-21 12:08 33.436692 -112.520230 96 2831ft 139kts
19-May-21 12:09 33.432444 -112.474146 96 2330ft 139kts
19-May-21 12:10 33.428277 -112.428969 96 2024ft 131kts
19-May-21 12:11 33.432685 -112.392251 25 1676ft 109kts
19-May-21 12:12 33.453477 -112.374989 92 1538ft 85kts
19-May-21 12:13 33.443774 -112.359153 187 1429ft 70kts
19-May-21 12:14 33.427440 -112.371506 219 966ft 56kts
19-May-21 12:15 33.424916 -112.373203 65 963ft 3kts
19-May-21 12:16 33.425077 -112.372210 77 963ft 12kts
19-May-21 12:17 33.427306 -112.368972 66 963ft 4kts
19-May-21 12:18 33.429883 -112.366524 36 968ft 5kts
19-May-21 12:19 33.430338 -112.366471 305 970ft 0kts
19-May-21 12:20 33.430338 -112.366471 305 970ft 0kts
19-May-21 12:21 33.430338 -112.366471 305 970ft 0kts
19-May-21 12:22 33.430338 -112.366471 305 970ft 0kts
19-May-21 12:22 33.430338 -112.366471 305 970ft 0kts
19-May-21 12:24 33.430338 -112.366471 305 970ft 0kts
19-May-21 12:25 33.430338 -112.366471 305 970ft 0kts
19-May-21 12:25 33.430338 -112.366471 305 970ft 0kts
19-May-21 12:26 33.430338 -112.366471 305 970ft 0kts
19-May-21 12:27 33.430338 -112.366471 305 970ft 0kts
19-May-21 12:29 33.430338 -112.366471 305 970ft 0kts
19-May-21 12:29 33.430338 -112.366471 305 970ft 0kts

Navigation Log

Ident Type
Flight plan parsing failed, navigation log unavailable